Earlimart, CA

2:18 PM PST on February 05, 2016 (GMT -0800)
Delano | | Change Station
CLOSE
Current Station
Personal Weather Station
Location: Delano, CA
Elevation: 335 ft
Nearby Weather Stations

Elev 335 ft 35.77 °N, 119.24 °W | Updated 6 minutes ago

Clear
Clear
61.7 °F
Feels Like 61.7 °F
N
4.7
Wind Variable Wind from NNE

Today
High -- | Low -- °F
--% Chance of Precip.
Yesterday
High -- | Low -- °F
Precip. -- in
Pressure 30.47 in
Visibility 10.0 miles
Clouds Clear
Dew Point 46 °F
Humidity 56%
Rainfall 0.00 in
Snow Depth Not available.
6:54 AM 5:28 PM
Waning Crescent, 9% visible
METAR KPTV 052156Z AUTO 00000KT 10SM CLR 16/07 A3042 RMK AO2 SLP317 T01610067
Pressure 30.47 in
Visibility 10.0 miles
Clouds Clear
Dew Point 46 °F
Humidity 56%
Rainfall 0.00 in
Snow Depth Not available.
6:54 AM 5:28 PM
Waning Crescent, 9% visible
METAR KPTV 052156Z AUTO 00000KT 10SM CLR 16/07 A3042 RMK AO2 SLP317 T01610067

10-Day Weather Forecast

Almanac

Astronomy

Feb. 05, 2016 Rise Set
Actual Time
Civil Twilight
Nautical Twilight
Astronomical Twilight
Moon
Length of Visible Light
Length of Day
Tomorrow will be .
, % of the Moon is Illuminated

Today's Extremes

State Highs State Lows

Community

WunderPhotos

Upload Photos

1,890,876 photos uploaded!

WunderBlog® & News

Nearby

Air Quality

  Air Quality AQ Index Pollutant
Not available.

Snow Depth

Station Depth Elevation

Earthquake Activity

City Distance Mag. Time & Date
Minimum magnitude displayed is 2.5.

Coastal Water Temperatures

Place Temperature

Stations

Nearby Weather Stations

Station Location Temp. Windchill Dew Point Humidity Wind Precip. Elev Updated Type
                   

Watches & Warnings

There are currently no watches in effect.